createdAt,value
2022-11-25T00:01:05.807Z,13.75
2022-11-25T00:03:32.158Z,13.90
2022-11-25T00:06:07.428Z,14.68
2022-11-25T00:08:33.727Z,12.85
2022-11-25T00:11:03.601Z,13.85
2022-11-25T00:13:30.020Z,13.23
2022-11-25T00:15:56.413Z,12.27
2022-11-25T00:18:22.802Z,13.55
2022-11-25T00:20:49.140Z,13.02
2022-11-25T00:23:15.583Z,11.18
2022-11-25T00:25:41.903Z,13.65
2022-11-25T00:28:08.231Z,12.23
2022-11-25T00:30:34.614Z,13.15
2022-11-25T00:33:00.899Z,12.13
2022-11-25T00:35:27.247Z,16.33
2022-11-25T00:37:53.605Z,11.65
2022-11-25T00:40:20.298Z,12.07
2022-11-25T00:43:05.347Z,11.57
2022-11-25T00:45:31.743Z,14.20
2022-11-25T00:47:58.087Z,13.30
2022-11-25T00:50:24.468Z,13.57
2022-11-25T00:52:50.818Z,11.35
2022-11-25T00:55:17.160Z,14.68
2022-11-25T00:57:43.501Z,10.27
2022-11-25T01:00:11.195Z,12.55
2022-11-25T01:02:37.793Z,14.80
2022-11-25T01:05:04.370Z,10.70
2022-11-25T01:07:30.721Z,11.57
2022-11-25T01:09:57.173Z,15.68
2022-11-25T01:12:23.731Z,9.68
2022-11-25T01:14:50.058Z,11.23
2022-11-25T01:17:19.636Z,11.93
2022-11-25T01:19:45.992Z,12.20
2022-11-25T01:22:12.345Z,12.57
2022-11-25T01:24:39.048Z,13.25
2022-11-25T01:27:05.449Z,10.45
2022-11-25T01:29:31.978Z,12.15
2022-11-25T01:31:58.389Z,12.48
2022-11-25T01:34:25.603Z,13.45
2022-11-25T01:36:51.969Z,12.98
2022-11-25T01:39:19.592Z,17.38
2022-11-25T01:41:46.654Z,14.70
2022-11-25T01:44:14.506Z,10.13
2022-11-25T01:46:59.804Z,13.75
2022-11-25T01:49:36.197Z,12.65
2022-11-25T01:52:06.562Z,11.82
2022-11-25T01:54:38.086Z,14.00
2022-11-25T01:57:12.164Z,10.38
2022-11-25T01:59:41.025Z,14.63
2022-11-25T02:02:07.707Z,13.38
2022-11-25T02:04:35.978Z,13.30
2022-11-25T02:07:09.286Z,13.70
2022-11-25T02:09:37.368Z,14.63
2022-11-25T02:12:04.695Z,10.52
2022-11-25T02:14:31.519Z,10.63
2022-11-25T02:17:00.283Z,11.93
2022-11-25T02:19:32.593Z,11.73
2022-11-25T02:22:02.794Z,12.15
2022-11-25T02:24:43.304Z,11.23
2022-11-25T02:27:09.649Z,12.30
2022-11-25T02:29:36.493Z,12.18
2022-11-25T02:32:02.945Z,9.20
2022-11-25T02:34:29.297Z,9.90
2022-11-25T02:36:56.772Z,10.25
2022-11-25T02:39:23.359Z,12.50
2022-11-25T02:41:51.906Z,10.27
2022-11-25T02:44:18.499Z,10.80
2022-11-25T02:46:45.048Z,9.95
2022-11-25T02:49:11.480Z,11.02
2022-11-25T02:51:38.984Z,10.50
2022-11-25T02:54:05.366Z,13.85
2022-11-25T02:56:32.963Z,8.98
2022-11-25T02:59:02.225Z,10.23
2022-11-25T03:01:29.916Z,11.13
2022-11-25T03:03:56.434Z,12.27
2022-11-25T03:06:22.896Z,11.18
2022-11-25T03:08:49.394Z,10.43
2022-11-25T03:11:15.886Z,9.98
2022-11-25T03:13:42.256Z,11.10
2022-11-25T03:16:11.099Z,9.93
2022-11-25T03:18:37.712Z,9.68
2022-11-25T03:21:04.126Z,10.90
2022-11-25T03:23:30.687Z,9.55
2022-11-25T03:25:57.090Z,8.93
2022-11-25T03:28:23.601Z,10.35
2022-11-25T03:30:50.062Z,11.93
2022-11-25T03:33:16.394Z,10.73
2022-11-25T03:35:42.728Z,10.05
2022-11-25T03:38:09.124Z,11.60
2022-11-25T03:40:35.590Z,9.18
2022-11-25T03:43:01.938Z,10.65
2022-11-25T03:45:28.259Z,12.02
2022-11-25T03:47:57.740Z,9.20
2022-11-25T03:50:24.078Z,10.65
2022-11-25T03:52:50.428Z,10.57
2022-11-25T03:55:16.903Z,12.07
2022-11-25T03:57:46.147Z,11.40
2022-11-25T04:00:13.038Z,9.88
2022-11-25T04:02:39.483Z,10.85
2022-11-25T04:05:06.120Z,8.95
2022-11-25T04:07:32.774Z,10.10
2022-11-25T04:09:59.159Z,9.25
2022-11-25T04:12:44.147Z,8.23
2022-11-25T04:15:10.658Z,8.68
2022-11-25T04:17:37.130Z,8.63
2022-11-25T04:20:04.135Z,9.40
2022-11-25T04:22:30.533Z,11.80
2022-11-25T04:24:58.363Z,13.82
2022-11-25T04:27:24.720Z,8.70
2022-11-25T04:29:51.105Z,9.65
2022-11-25T04:32:17.472Z,9.60
2022-11-25T04:34:43.835Z,9.77
2022-11-25T04:37:10.231Z,11.35
2022-11-25T04:39:36.764Z,8.35
2022-11-25T04:42:21.532Z,8.60
2022-11-25T04:45:01.382Z,7.90
2022-11-25T04:47:34.040Z,10.40
2022-11-25T04:50:02.090Z,7.25
2022-11-25T04:52:28.498Z,10.18
2022-11-25T04:54:54.863Z,8.25
2022-11-25T04:57:21.394Z,10.50
2022-11-25T04:59:47.790Z,12.30
2022-11-25T05:02:15.814Z,10.48
2022-11-25T05:04:43.202Z,7.90
2022-11-25T05:07:09.653Z,8.05
2022-11-25T05:09:36.228Z,7.40
2022-11-25T05:12:02.645Z,9.88
2022-11-25T05:14:28.980Z,8.43
2022-11-25T05:16:55.580Z,7.55
2022-11-25T05:19:24.035Z,8.30
2022-11-25T05:21:50.376Z,7.10
2022-11-25T05:24:16.720Z,7.45
2022-11-25T05:26:43.047Z,5.90
2022-11-25T05:29:09.783Z,7.13
2022-11-25T05:31:36.191Z,6.35
2022-11-25T05:34:03.000Z,8.32
2022-11-25T05:36:29.623Z,6.35
2022-11-25T05:38:56.651Z,6.75
2022-11-25T05:41:23.108Z,7.25
2022-11-25T05:43:49.418Z,4.80
2022-11-25T05:46:15.832Z,5.28
2022-11-25T05:48:42.260Z,4.07
2022-11-25T05:51:09.204Z,5.32
2022-11-25T05:53:36.111Z,7.13
2022-11-25T05:56:03.527Z,5.22
2022-11-25T05:58:30.436Z,5.72
2022-11-25T06:00:59.094Z,5.47
2022-11-25T06:03:28.946Z,5.55
2022-11-25T06:05:57.482Z,5.97
2022-11-25T06:08:23.873Z,4.43
2022-11-25T06:10:50.248Z,4.15
2022-11-25T06:13:16.609Z,5.15
2022-11-25T06:15:44.083Z,5.45
2022-11-25T06:18:15.319Z,5.07
2022-11-25T06:20:41.760Z,6.10
2022-11-25T06:23:09.091Z,5.68
2022-11-25T06:25:36.549Z,7.93
2022-11-25T06:28:18.868Z,6.60
2022-11-25T06:30:45.388Z,4.75
2022-11-25T06:33:11.756Z,7.25
2022-11-25T06:35:38.165Z,5.47
2022-11-25T06:38:04.533Z,7.50
2022-11-25T06:40:30.909Z,5.68
2022-11-25T06:42:57.374Z,7.63
2022-11-25T06:45:26.884Z,5.45
2022-11-25T06:47:53.715Z,5.47
2022-11-25T06:50:20.057Z,7.05
2022-11-25T06:52:46.425Z,6.65
2022-11-25T06:55:12.924Z,6.00
2022-11-25T06:57:39.404Z,7.30
2022-11-25T07:00:06.167Z,8.18
2022-11-25T07:02:41.676Z,7.00
2022-11-25T07:05:10.553Z,7.20
2022-11-25T07:07:37.409Z,7.53
2022-11-25T07:10:04.058Z,5.90
2022-11-25T07:12:30.643Z,9.15
2022-11-25T07:14:56.987Z,5.65
2022-11-25T07:17:23.427Z,7.18
2022-11-25T07:19:49.753Z,6.93
2022-11-25T07:22:16.196Z,6.05
2022-11-25T07:24:42.659Z,6.88
2022-11-25T07:27:09.053Z,6.53
2022-11-25T07:29:57.885Z,6.25
2022-11-25T07:32:22.649Z,6.35
2022-11-25T07:34:50.271Z,6.97
2022-11-25T07:37:17.872Z,7.35
2022-11-25T07:39:44.326Z,6.22
2022-11-25T07:42:10.647Z,9.13
2022-11-25T07:44:36.966Z,6.43
2022-11-25T07:47:03.366Z,4.88
2022-11-25T07:49:29.838Z,6.07
2022-11-25T07:51:57.711Z,6.05
2022-11-25T07:54:24.096Z,5.78
2022-11-25T07:56:50.818Z,7.05
2022-11-25T07:59:21.324Z,5.68
2022-11-25T08:01:51.543Z,5.15
2022-11-25T08:04:20.728Z,6.88
2022-11-25T08:06:48.492Z,6.40
2022-11-25T08:09:19.141Z,5.93
2022-11-25T08:11:46.104Z,6.43
2022-11-25T08:14:15.633Z,5.85
2022-11-25T08:16:42.282Z,5.63
2022-11-25T08:19:11.489Z,6.90
2022-11-25T08:21:38.076Z,6.57
2022-11-25T08:24:05.385Z,6.72
2022-11-25T08:26:34.011Z,6.45
2022-11-25T08:29:00.749Z,5.97
2022-11-25T08:31:31.867Z,5.85
2022-11-25T08:33:58.874Z,6.60
2022-11-25T08:36:26.185Z,5.97
2022-11-25T08:38:53.904Z,6.78
2022-11-25T08:41:22.227Z,7.25
2022-11-25T08:43:48.634Z,6.68
2022-11-25T08:46:16.868Z,6.32
2022-11-25T08:48:43.824Z,8.88
2022-11-25T08:51:11.975Z,8.02
2022-11-25T08:53:39.254Z,8.90
2022-11-25T08:56:06.174Z,7.72
2022-11-25T08:58:33.212Z,8.50
2022-11-25T09:00:59.559Z,6.57
2022-11-25T09:03:25.997Z,9.20
2022-11-25T09:05:52.591Z,8.75
2022-11-25T09:08:19.016Z,6.85
2022-11-25T09:10:45.498Z,8.27
2022-11-25T09:13:11.935Z,7.05
2022-11-25T09:15:39.201Z,7.40
2022-11-25T09:18:08.078Z,7.47
2022-11-25T09:20:35.094Z,9.13
2022-11-25T09:23:02.149Z,6.88
2022-11-25T09:25:29.107Z,5.97
2022-11-25T09:27:55.909Z,10.57
2022-11-25T09:30:22.419Z,9.02
2022-11-25T09:32:49.768Z,7.72
2022-11-25T09:35:16.807Z,9.35
2022-11-25T09:37:43.477Z,8.45
2022-11-25T09:40:18.631Z,7.95
2022-11-25T09:43:12.760Z,8.23
2022-11-25T09:46:06.914Z,7.63
2022-11-25T09:48:40.979Z,7.22
2022-11-25T09:51:14.024Z,8.93
2022-11-25T09:53:52.234Z,10.15
2022-11-25T09:56:37.674Z,8.73
2022-11-25T09:59:07.041Z,8.25
2022-11-25T10:01:35.116Z,9.95
2022-11-25T10:04:04.475Z,9.63
2022-11-25T10:06:55.282Z,10.48
2022-11-25T10:09:26.124Z,8.13
2022-11-25T10:11:54.058Z,8.88
2022-11-25T10:14:29.266Z,7.35
2022-11-25T10:17:01.652Z,8.93
2022-11-25T10:19:28.004Z,7.13
2022-11-25T10:21:54.356Z,7.25
2022-11-25T10:24:21.594Z,8.65
2022-11-25T10:26:56.996Z,6.57
2022-11-25T10:29:25.024Z,7.00
2022-11-25T10:31:53.732Z,6.78
2022-11-25T10:34:40.437Z,8.52
2022-11-25T10:37:15.072Z,10.38
2022-11-25T10:39:41.443Z,9.13
2022-11-25T10:42:14.134Z,6.13
2022-11-25T10:44:41.285Z,6.25
2022-11-25T10:47:14.876Z,7.13
2022-11-25T10:49:50.324Z,6.65
2022-11-25T10:52:20.572Z,8.52
2022-11-25T10:54:57.143Z,6.72
2022-11-25T10:57:27.055Z,6.90
2022-11-25T10:59:58.377Z,7.65
2022-11-25T11:02:27.131Z,7.53
2022-11-25T11:04:56.291Z,6.65
2022-11-25T11:07:23.134Z,7.40
2022-11-25T11:09:49.749Z,7.15
2022-11-25T11:12:23.438Z,7.78
2022-11-25T11:14:50.030Z,13.15
2022-11-25T11:17:30.613Z,8.50
2022-11-25T11:20:06.885Z,6.72
2022-11-25T11:22:34.181Z,10.45
2022-11-25T11:25:06.792Z,7.88
2022-11-25T11:27:37.850Z,8.85
2022-11-25T11:30:10.603Z,8.60
2022-11-25T11:32:40.032Z,7.97
2022-11-25T11:35:08.716Z,7.57
2022-11-25T11:37:35.105Z,10.15
2022-11-25T11:40:20.143Z,7.25
2022-11-25T11:42:52.665Z,10.07
2022-11-25T11:45:36.416Z,7.68
2022-11-25T11:48:05.861Z,7.63
2022-11-25T11:50:35.362Z,8.48
2022-11-25T11:53:07.765Z,7.72
2022-11-25T11:55:55.977Z,7.75
2022-11-25T11:58:33.385Z,6.88
2022-11-25T12:01:29.301Z,7.35
2022-11-25T12:04:10.983Z,7.28
2022-11-25T12:06:38.388Z,9.77
2022-11-25T12:09:09.581Z,7.13
2022-11-25T12:11:38.684Z,6.18
2022-11-25T12:14:23.305Z,8.68
2022-11-25T12:17:12.637Z,6.68
2022-11-25T12:19:41.694Z,6.70
2022-11-25T12:22:08.006Z,9.95
2022-11-25T12:24:40.404Z,7.60
2022-11-25T12:27:08.645Z,6.43
2022-11-25T12:29:53.088Z,7.45
2022-11-25T12:32:19.406Z,7.03
2022-11-25T12:34:51.285Z,8.52
2022-11-25T12:37:23.984Z,7.35
2022-11-25T12:39:57.194Z,6.75
2022-11-25T12:42:25.777Z,7.60
2022-11-25T12:45:21.188Z,7.68
2022-11-25T12:47:49.568Z,7.38
2022-11-25T12:50:26.898Z,10.02
2022-11-25T12:53:12.522Z,9.82
2022-11-25T12:55:40.657Z,8.30
2022-11-25T12:58:18.634Z,7.32
2022-11-25T13:00:57.310Z,7.10
2022-11-25T13:03:38.900Z,7.68
2022-11-25T13:06:20.614Z,7.63
2022-11-25T13:08:55.648Z,8.40
2022-11-25T13:11:31.102Z,6.68
2022-11-25T13:14:17.004Z,5.45
2022-11-25T13:16:45.957Z,6.35
2022-11-25T13:19:16.320Z,6.53
2022-11-25T13:21:59.357Z,6.72
2022-11-25T13:24:30.975Z,8.93
2022-11-25T13:26:57.544Z,6.30
2022-11-25T13:29:44.243Z,7.55
2022-11-25T13:32:27.400Z,6.57
2022-11-25T13:35:12.638Z,6.93
2022-11-25T13:37:40.725Z,7.00
2022-11-25T13:40:20.073Z,6.80
2022-11-25T13:42:46.437Z,7.90
2022-11-25T13:45:33.084Z,6.93
2022-11-25T13:48:06.363Z,6.10
2022-11-25T13:50:55.498Z,13.77
2022-11-25T13:53:30.562Z,8.80
2022-11-25T13:56:16.020Z,6.80
2022-11-25T13:59:02.300Z,11.18
2022-11-25T14:01:30.566Z,7.13
2022-11-25T14:03:57.531Z,7.07
2022-11-25T14:06:31.558Z,7.97
2022-11-25T14:09:16.806Z,8.07
2022-11-25T14:11:52.262Z,6.97
2022-11-25T14:14:37.482Z,13.05
2022-11-25T14:17:39.571Z,10.30
2022-11-25T14:20:13.988Z,9.18
2022-11-25T14:23:00.191Z,8.30
2022-11-25T14:25:30.173Z,8.48
2022-11-25T14:28:09.018Z,11.13
2022-11-25T14:30:43.021Z,8.25
2022-11-25T14:33:12.572Z,6.80
2022-11-25T14:35:45.725Z,9.55
2022-11-25T14:38:15.002Z,10.50
2022-11-25T14:40:53.086Z,10.95
2022-11-25T14:43:22.053Z,9.52
2022-11-25T14:45:48.685Z,7.88
2022-11-25T14:48:26.064Z,8.02
2022-11-25T14:50:59.566Z,7.90
2022-11-25T14:53:27.080Z,8.30
2022-11-25T14:55:54.920Z,7.72
2022-11-25T14:58:21.541Z,6.22
2022-11-25T15:00:59.379Z,6.47
2022-11-25T15:03:25.864Z,9.25
2022-11-25T15:05:57.250Z,5.55
2022-11-25T15:08:24.552Z,7.65
2022-11-25T15:10:58.886Z,11.55
2022-11-25T15:13:42.248Z,8.80
2022-11-25T15:16:19.698Z,7.45
2022-11-25T15:18:54.024Z,8.07
2022-11-25T15:21:21.860Z,6.97
2022-11-25T15:23:48.655Z,8.18
2022-11-25T15:26:19.753Z,6.35
2022-11-25T15:28:46.220Z,7.43
2022-11-25T15:31:17.479Z,8.32
2022-11-25T15:33:44.258Z,6.53
2022-11-25T15:36:10.650Z,7.88
2022-11-25T15:38:41.596Z,7.30
2022-11-25T15:43:41.962Z,10.05
2022-11-25T15:46:08.983Z,8.60
2022-11-25T15:48:38.517Z,8.40
2022-11-25T15:51:06.651Z,7.55
2022-11-25T15:53:37.054Z,6.90
2022-11-25T15:56:04.384Z,7.47
2022-11-25T15:58:30.851Z,8.70
2022-11-25T16:01:01.685Z,8.45
2022-11-25T16:05:57.143Z,6.22
2022-11-25T16:08:29.487Z,9.85
2022-11-25T16:10:57.026Z,7.28
2022-11-25T16:13:23.560Z,7.68
2022-11-25T16:15:52.761Z,9.27
2022-11-25T16:18:41.933Z,7.50
2022-11-25T16:21:11.581Z,6.07
2022-11-25T16:23:40.603Z,6.45
2022-11-25T16:26:13.244Z,7.28
2022-11-25T16:28:40.851Z,7.13
2022-11-25T16:31:10.441Z,11.38
2022-11-25T16:33:36.961Z,6.78
2022-11-25T16:36:08.240Z,8.23
2022-11-25T16:38:35.908Z,6.90
2022-11-25T16:41:09.533Z,7.35
2022-11-25T16:43:39.269Z,7.72
2022-11-25T16:46:06.230Z,8.15
2022-11-25T16:48:32.607Z,7.30
2022-11-25T16:50:59.009Z,5.18
2022-11-25T16:53:25.413Z,8.65
2022-11-25T16:55:51.752Z,8.77
2022-11-25T16:58:19.503Z,6.43
2022-11-25T17:00:49.862Z,8.75
2022-11-25T17:03:16.271Z,8.35
2022-11-25T17:05:42.676Z,8.73
2022-11-25T17:08:09.093Z,9.48
2022-11-25T17:10:35.601Z,9.15
2022-11-25T17:13:02.796Z,6.60
2022-11-25T17:15:35.851Z,8.63
2022-11-25T17:18:03.239Z,7.00
2022-11-25T17:20:29.584Z,9.40
2022-11-25T17:22:55.920Z,9.05
2022-11-25T17:25:23.397Z,7.03
2022-11-25T17:27:49.775Z,10.25
2022-11-25T17:30:18.138Z,6.32
2022-11-25T17:32:44.952Z,8.10
2022-11-25T17:35:19.023Z,7.20
2022-11-25T17:37:45.799Z,8.10
2022-11-25T17:40:12.623Z,7.18
2022-11-25T17:42:39.467Z,7.45
2022-11-25T17:45:15.802Z,8.23
2022-11-25T17:47:42.320Z,6.30
2022-11-25T17:50:19.827Z,8.85
2022-11-25T17:52:46.492Z,6.90
2022-11-25T17:55:13.000Z,10.50
2022-11-25T17:57:39.406Z,7.25
2022-11-25T18:00:10.322Z,7.38
2022-11-25T18:05:10.126Z,6.72
2022-11-25T18:07:36.580Z,6.75
2022-11-25T18:10:03.212Z,4.45
2022-11-25T18:12:30.735Z,5.82
2022-11-25T18:14:57.306Z,5.93
2022-11-25T18:17:23.640Z,6.18
2022-11-25T18:19:54.905Z,6.93
2022-11-25T18:22:23.565Z,7.25
2022-11-25T18:24:50.240Z,7.15
2022-11-25T18:27:27.522Z,6.93
2022-11-25T18:29:54.464Z,6.10
2022-11-25T18:32:21.258Z,6.32
2022-11-25T18:34:48.869Z,7.00
2022-11-25T18:37:15.409Z,7.03
2022-11-25T18:39:42.161Z,4.88
2022-11-25T18:42:14.458Z,5.30
2022-11-25T18:44:43.727Z,8.75
2022-11-25T18:47:13.181Z,9.68
2022-11-25T18:49:39.769Z,7.13
2022-11-25T18:52:06.087Z,6.32
2022-11-25T18:54:32.491Z,6.43
2022-11-25T18:57:01.141Z,5.22
2022-11-25T18:59:29.768Z,6.00
2022-11-25T19:01:56.344Z,4.78
2022-11-25T19:04:22.748Z,6.00
2022-11-25T19:06:49.078Z,6.93
2022-11-25T19:09:15.445Z,5.97
2022-11-25T19:11:43.536Z,7.82
2022-11-25T19:14:30.282Z,5.25
2022-11-25T19:16:59.054Z,5.50
2022-11-25T19:19:25.583Z,5.63
2022-11-25T19:21:51.985Z,6.97
2022-11-25T19:24:18.331Z,6.35
2022-11-25T19:26:48.926Z,5.95
2022-11-25T19:29:19.681Z,5.57
2022-11-25T19:31:46.525Z,6.13
2022-11-25T19:34:24.697Z,6.53
2022-11-25T19:36:51.100Z,7.35
2022-11-25T19:39:18.632Z,6.68
2022-11-25T19:41:45.001Z,6.85
2022-11-25T19:44:11.448Z,5.20
2022-11-25T19:47:07.124Z,4.93
2022-11-25T19:49:26.629Z,6.90
2022-11-25T19:51:55.169Z,10.90
2022-11-25T19:54:21.516Z,7.00
2022-11-25T19:56:49.161Z,6.85
2022-11-25T19:59:15.535Z,5.63
2022-11-25T20:01:43.543Z,6.53
2022-11-25T20:04:13.343Z,4.80
2022-11-25T20:06:39.680Z,6.10
2022-11-25T20:09:11.387Z,6.85
2022-11-25T20:11:37.792Z,7.10
2022-11-25T20:14:04.449Z,6.93
2022-11-25T20:16:38.557Z,7.43
2022-11-25T20:19:08.981Z,8.23
2022-11-25T20:21:39.888Z,9.27
2022-11-25T20:26:36.449Z,5.10
2022-11-25T20:29:03.366Z,7.07
2022-11-25T20:31:31.651Z,8.60
2022-11-25T20:33:58.123Z,7.78
2022-11-25T20:36:28.870Z,9.27
2022-11-25T20:38:56.064Z,6.55
2022-11-25T20:41:27.480Z,6.72
2022-11-25T20:43:54.904Z,8.07
2022-11-25T20:46:26.252Z,7.18
2022-11-25T20:48:57.523Z,9.52
2022-11-25T20:51:24.130Z,6.93
2022-11-25T20:53:51.989Z,5.72
2022-11-25T20:56:19.343Z,6.72
2022-11-25T20:58:46.436Z,9.55
2022-11-25T21:01:14.636Z,8.25
2022-11-25T21:03:42.083Z,6.85
2022-11-25T21:06:16.629Z,8.25
2022-11-25T21:08:45.479Z,7.88
2022-11-25T21:11:11.802Z,7.75
2022-11-25T21:13:38.138Z,9.10
2022-11-25T21:16:04.755Z,6.55
2022-11-25T21:18:31.125Z,8.02
2022-11-25T21:20:58.214Z,8.18
2022-11-25T21:23:28.429Z,8.55
2022-11-25T21:25:57.229Z,8.20
2022-11-25T21:28:26.366Z,7.50
2022-11-25T21:30:52.818Z,7.82
2022-11-25T21:33:19.159Z,7.80
2022-11-25T21:35:46.593Z,8.32
2022-11-25T21:38:24.042Z,7.40
2022-11-25T21:40:52.373Z,8.30
2022-11-25T21:43:28.370Z,6.85
2022-11-25T21:46:02.044Z,7.72
2022-11-25T21:48:29.689Z,8.68
2022-11-25T21:50:56.422Z,8.23
2022-11-25T21:53:22.789Z,5.90
2022-11-25T21:55:49.343Z,9.65
2022-11-25T21:58:20.539Z,8.52
2022-11-25T22:00:53.248Z,6.07
2022-11-25T22:03:20.473Z,8.38
2022-11-25T22:05:47.631Z,6.78
2022-11-25T22:08:14.277Z,6.78
2022-11-25T22:10:42.129Z,6.07
2022-11-25T22:13:12.225Z,8.10
2022-11-25T22:15:38.590Z,9.75
2022-11-25T22:18:11.939Z,8.13
2022-11-25T22:20:38.550Z,7.60
2022-11-25T22:23:11.183Z,7.93
2022-11-25T22:25:37.606Z,7.80
2022-11-25T22:28:06.327Z,6.05
2022-11-25T22:30:32.727Z,6.05
2022-11-25T22:33:00.915Z,8.38
2022-11-25T22:35:27.840Z,6.85
2022-11-25T22:37:55.570Z,6.60
2022-11-25T22:40:22.687Z,7.60
2022-11-25T22:42:50.160Z,7.18
2022-11-25T22:45:33.192Z,6.47
2022-11-25T22:48:00.604Z,8.07
2022-11-25T22:50:28.064Z,7.20
2022-11-25T22:52:55.628Z,6.28
2022-11-25T22:55:26.268Z,6.95
2022-11-25T22:57:53.662Z,7.60
2022-11-25T23:00:21.790Z,7.00
2022-11-25T23:02:49.721Z,5.32
2022-11-25T23:05:20.460Z,5.72
2022-11-25T23:07:46.873Z,6.45
2022-11-25T23:10:15.211Z,6.15
2022-11-25T23:12:41.710Z,5.43
2022-11-25T23:15:12.072Z,6.32
2022-11-25T23:17:38.467Z,5.20
2022-11-25T23:20:14.006Z,6.57
2022-11-25T23:22:40.359Z,6.88
2022-11-25T23:25:12.607Z,5.53
2022-11-25T23:27:38.982Z,5.22
2022-11-25T23:30:06.639Z,4.85
2022-11-25T23:32:37.007Z,5.47
2022-11-25T23:35:03.486Z,5.63
2022-11-25T23:37:29.895Z,4.47
2022-11-25T23:39:56.302Z,5.88
2022-11-25T23:42:22.661Z,6.32
2022-11-25T23:44:49.032Z,5.32
2022-11-25T23:47:20.223Z,6.50
2022-11-25T23:49:48.704Z,6.82
2022-11-25T23:52:18.678Z,5.80
2022-11-25T23:54:45.840Z,7.07
2022-11-25T23:57:16.553Z,4.00
2022-11-25T23:59:43.069Z,6.93
